sensor_id;sensor_type;location;lat;lon;timestamp;pressure;altitude;pressure_sealevel;temperature
12061;BMP180;6091;51.432;6.880;2023-04-15T00:01:05;100023.00;;;25.00
12061;BMP180;6091;51.432;6.880;2023-04-15T00:03:33;100023.00;;;25.00
12061;BMP180;6091;51.432;6.880;2023-04-15T00:06:01;100030.00;;;25.00
12061;BMP180;6091;51.432;6.880;2023-04-15T00:08:28;100027.00;;;25.00
12061;BMP180;6091;51.432;6.880;2023-04-15T00:10:56;100029.00;;;24.90
12061;BMP180;6091;51.432;6.880;2023-04-15T00:13:29;100029.00;;;24.90
12061;BMP180;6091;51.432;6.880;2023-04-15T00:15:56;100030.00;;;24.90
12061;BMP180;6091;51.432;6.880;2023-04-15T00:18:23;100029.00;;;24.90
12061;BMP180;6091;51.432;6.880;2023-04-15T00:20:51;100032.00;;;24.90
12061;BMP180;6091;51.432;6.880;2023-04-15T00:23:19;100032.00;;;24.90
12061;BMP180;6091;51.432;6.880;2023-04-15T00:25:46;100033.00;;;24.90
12061;BMP180;6091;51.432;6.880;2023-04-15T00:28:13;100025.00;;;24.90
12061;BMP180;6091;51.432;6.880;2023-04-15T00:30:41;100032.00;;;24.90
12061;BMP180;6091;51.432;6.880;2023-04-15T00:33:09;100029.00;;;24.90
12061;BMP180;6091;51.432;6.880;2023-04-15T00:35:36;100027.00;;;24.90
12061;BMP180;6091;51.432;6.880;2023-04-15T00:38:05;100026.00;;;24.90
12061;BMP180;6091;51.432;6.880;2023-04-15T00:40:34;100024.00;;;24.80
12061;BMP180;6091;51.432;6.880;2023-04-15T00:43:02;100030.00;;;24.80
12061;BMP180;6091;51.432;6.880;2023-04-15T00:45:30;100028.00;;;24.80
12061;BMP180;6091;51.432;6.880;2023-04-15T00:47:58;100036.00;;;24.80
12061;BMP180;6091;51.432;6.880;2023-04-15T00:50:25;100032.00;;;24.80
12061;BMP180;6091;51.432;6.880;2023-04-15T00:52:52;100027.00;;;24.80
12061;BMP180;6091;51.432;6.880;2023-04-15T00:55:19;100035.00;;;24.80
12061;BMP180;6091;51.432;6.880;2023-04-15T00:57:47;100029.00;;;24.80
12061;BMP180;6091;51.432;6.880;2023-04-15T01:00:14;100032.00;;;24.80
12061;BMP180;6091;51.432;6.880;2023-04-15T01:02:42;100033.00;;;24.80
12061;BMP180;6091;51.432;6.880;2023-04-15T01:05:10;100039.00;;;24.80
12061;BMP180;6091;51.432;6.880;2023-04-15T01:07:37;100034.00;;;24.70
12061;BMP180;6091;51.432;6.880;2023-04-15T01:10:05;100035.00;;;24.70
12061;BMP180;6091;51.432;6.880;2023-04-15T01:12:32;100032.00;;;24.70
12061;BMP180;6091;51.432;6.880;2023-04-15T01:15:00;100031.00;;;24.70
12061;BMP180;6091;51.432;6.880;2023-04-15T01:17:28;100034.00;;;24.70
12061;BMP180;6091;51.432;6.880;2023-04-15T01:19:56;100034.00;;;24.70
12061;BMP180;6091;51.432;6.880;2023-04-15T01:22:26;100031.00;;;24.70
12061;BMP180;6091;51.432;6.880;2023-04-15T01:25:05;100028.00;;;24.70
12061;BMP180;6091;51.432;6.880;2023-04-15T01:27:35;100024.00;;;24.70
12061;BMP180;6091;51.432;6.880;2023-04-15T01:30:05;100028.00;;;24.70
12061;BMP180;6091;51.432;6.880;2023-04-15T01:32:32;100031.00;;;24.60
12061;BMP180;6091;51.432;6.880;2023-04-15T01:34:59;100024.00;;;24.70
12061;BMP180;6091;51.432;6.880;2023-04-15T01:37:26;100031.00;;;24.60
12061;BMP180;6091;51.432;6.880;2023-04-15T01:39:58;100040.00;;;24.60
12061;BMP180;6091;51.432;6.880;2023-04-15T01:42:28;100039.00;;;24.60
12061;BMP180;6091;51.432;6.880;2023-04-15T01:44:58;100025.00;;;24.60
12061;BMP180;6091;51.432;6.880;2023-04-15T01:47:25;100039.00;;;24.60
12061;BMP180;6091;51.432;6.880;2023-04-15T01:49:52;100035.00;;;24.60
12061;BMP180;6091;51.432;6.880;2023-04-15T01:52:19;100032.00;;;24.60
12061;BMP180;6091;51.432;6.880;2023-04-15T01:54:47;100032.00;;;24.60
12061;BMP180;6091;51.432;6.880;2023-04-15T01:57:14;100031.00;;;24.60
12061;BMP180;6091;51.432;6.880;2023-04-15T01:59:41;100029.00;;;24.60
12061;BMP180;6091;51.432;6.880;2023-04-15T02:02:11;100032.00;;;24.50
12061;BMP180;6091;51.432;6.880;2023-04-15T02:04:38;100028.00;;;24.60
12061;BMP180;6091;51.432;6.880;2023-04-15T02:07:06;100030.00;;;24.60
12061;BMP180;6091;51.432;6.880;2023-04-15T02:09:33;100032.00;;;24.60
12061;BMP180;6091;51.432;6.880;2023-04-15T02:12:00;100032.00;;;24.50
12061;BMP180;6091;51.432;6.880;2023-04-15T02:14:27;100028.00;;;24.50
12061;BMP180;6091;51.432;6.880;2023-04-15T02:16:54;100034.00;;;24.50
12061;BMP180;6091;51.432;6.880;2023-04-15T02:19:21;100036.00;;;24.50
12061;BMP180;6091;51.432;6.880;2023-04-15T02:21:49;100031.00;;;24.50
12061;BMP180;6091;51.432;6.880;2023-04-15T02:24:16;100035.00;;;24.50
12061;BMP180;6091;51.432;6.880;2023-04-15T02:26:43;100032.00;;;24.50
12061;BMP180;6091;51.432;6.880;2023-04-15T02:29:11;100042.00;;;24.50
12061;BMP180;6091;51.432;6.880;2023-04-15T02:31:38;100040.00;;;24.50
12061;BMP180;6091;51.432;6.880;2023-04-15T02:34:06;100044.00;;;24.50
12061;BMP180;6091;51.432;6.880;2023-04-15T02:36:34;100040.00;;;24.40
12061;BMP180;6091;51.432;6.880;2023-04-15T02:39:01;100039.00;;;24.40
12061;BMP180;6091;51.432;6.880;2023-04-15T02:41:30;100046.00;;;24.40
12061;BMP180;6091;51.432;6.880;2023-04-15T02:43:57;100051.00;;;24.40
12061;BMP180;6091;51.432;6.880;2023-04-15T02:46:24;100056.00;;;24.40
12061;BMP180;6091;51.432;6.880;2023-04-15T02:48:51;100056.00;;;24.40
12061;BMP180;6091;51.432;6.880;2023-04-15T02:51:21;100058.00;;;24.40
12061;BMP180;6091;51.432;6.880;2023-04-15T02:53:51;100061.00;;;24.40
12061;BMP180;6091;51.432;6.880;2023-04-15T02:56:27;100053.00;;;24.40
12061;BMP180;6091;51.432;6.880;2023-04-15T02:58:54;100064.00;;;24.40
12061;BMP180;6091;51.432;6.880;2023-04-15T03:01:25;100061.00;;;24.40
12061;BMP180;6091;51.432;6.880;2023-04-15T03:03:52;100065.00;;;24.40
12061;BMP180;6091;51.432;6.880;2023-04-15T03:06:19;100070.00;;;24.30
12061;BMP180;6091;51.432;6.880;2023-04-15T03:08:47;100078.00;;;24.30
12061;BMP180;6091;51.432;6.880;2023-04-15T03:11:14;100074.00;;;24.30
12061;BMP180;6091;51.432;6.880;2023-04-15T03:13:42;100077.00;;;24.30
12061;BMP180;6091;51.432;6.880;2023-04-15T03:16:09;100081.00;;;24.30
12061;BMP180;6091;51.432;6.880;2023-04-15T03:18:37;100073.00;;;24.30
12061;BMP180;6091;51.432;6.880;2023-04-15T03:21:06;100066.00;;;24.30
12061;BMP180;6091;51.432;6.880;2023-04-15T03:23:34;100069.00;;;24.30
12061;BMP180;6091;51.432;6.880;2023-04-15T03:26:03;100081.00;;;24.30
12061;BMP180;6091;51.432;6.880;2023-04-15T03:28:31;100076.00;;;24.30
12061;BMP180;6091;51.432;6.880;2023-04-15T03:30:59;100085.00;;;24.30
12061;BMP180;6091;51.432;6.880;2023-04-15T03:33:26;100089.00;;;24.20
12061;BMP180;6091;51.432;6.880;2023-04-15T03:35:53;100087.00;;;24.20
12061;BMP180;6091;51.432;6.880;2023-04-15T03:38:20;100082.00;;;24.20
12061;BMP180;6091;51.432;6.880;2023-04-15T03:40:47;100087.00;;;24.20
12061;BMP180;6091;51.432;6.880;2023-04-15T03:43:14;100087.00;;;24.20
12061;BMP180;6091;51.432;6.880;2023-04-15T03:45:42;100085.00;;;24.20
12061;BMP180;6091;51.432;6.880;2023-04-15T03:48:09;100088.00;;;24.20
12061;BMP180;6091;51.432;6.880;2023-04-15T03:50:44;100090.00;;;24.20
12061;BMP180;6091;51.432;6.880;2023-04-15T03:53:12;100097.00;;;24.20
12061;BMP180;6091;51.432;6.880;2023-04-15T03:55:39;100094.00;;;24.20
12061;BMP180;6091;51.432;6.880;2023-04-15T03:58:06;100106.00;;;24.20
12061;BMP180;6091;51.432;6.880;2023-04-15T04:00:33;100112.00;;;24.20
12061;BMP180;6091;51.432;6.880;2023-04-15T04:03:00;100108.00;;;24.20
12061;BMP180;6091;51.432;6.880;2023-04-15T04:05:28;100103.00;;;24.20
12061;BMP180;6091;51.432;6.880;2023-04-15T04:07:58;100111.00;;;24.20
12061;BMP180;6091;51.432;6.880;2023-04-15T04:10:26;100110.00;;;24.20
12061;BMP180;6091;51.432;6.880;2023-04-15T04:12:53;100109.00;;;24.10
12061;BMP180;6091;51.432;6.880;2023-04-15T04:15:20;100111.00;;;24.10
12061;BMP180;6091;51.432;6.880;2023-04-15T04:17:47;100109.00;;;24.10
12061;BMP180;6091;51.432;6.880;2023-04-15T04:20:14;100106.00;;;24.10
12061;BMP180;6091;51.432;6.880;2023-04-15T04:22:44;100110.00;;;24.10
12061;BMP180;6091;51.432;6.880;2023-04-15T04:25:11;100106.00;;;24.10
12061;BMP180;6091;51.432;6.880;2023-04-15T04:27:39;100117.00;;;24.10
12061;BMP180;6091;51.432;6.880;2023-04-15T04:30:07;100113.00;;;24.10
12061;BMP180;6091;51.432;6.880;2023-04-15T04:32:34;100122.00;;;24.10
12061;BMP180;6091;51.432;6.880;2023-04-15T04:35:03;100125.00;;;24.10
12061;BMP180;6091;51.432;6.880;2023-04-15T04:37:31;100119.00;;;24.00
12061;BMP180;6091;51.432;6.880;2023-04-15T04:39:58;100129.00;;;24.00
12061;BMP180;6091;51.432;6.880;2023-04-15T04:42:25;100135.00;;;24.00
12061;BMP180;6091;51.432;6.880;2023-04-15T04:44:53;100132.00;;;24.00
12061;BMP180;6091;51.432;6.880;2023-04-15T04:47:20;100136.00;;;24.00
12061;BMP180;6091;51.432;6.880;2023-04-15T04:49:47;100141.00;;;24.00
12061;BMP180;6091;51.432;6.880;2023-04-15T04:52:15;100132.00;;;24.00
12061;BMP180;6091;51.432;6.880;2023-04-15T04:54:42;100143.00;;;24.00
12061;BMP180;6091;51.432;6.880;2023-04-15T04:57:10;100143.00;;;24.00
12061;BMP180;6091;51.432;6.880;2023-04-15T04:59:39;100149.00;;;24.00
12061;BMP180;6091;51.432;6.880;2023-04-15T05:02:06;100150.00;;;24.00
12061;BMP180;6091;51.432;6.880;2023-04-15T05:04:34;100157.00;;;24.00
12061;BMP180;6091;51.432;6.880;2023-04-15T05:07:03;100147.00;;;24.00
12061;BMP180;6091;51.432;6.880;2023-04-15T05:09:30;100156.00;;;24.00
12061;BMP180;6091;51.432;6.880;2023-04-15T05:11:58;100163.00;;;24.00
12061;BMP180;6091;51.432;6.880;2023-04-15T05:14:27;100169.00;;;24.00
12061;BMP180;6091;51.432;6.880;2023-04-15T05:16:54;100173.00;;;24.00
12061;BMP180;6091;51.432;6.880;2023-04-15T05:19:21;100171.00;;;24.00
12061;BMP180;6091;51.432;6.880;2023-04-15T05:21:48;100170.00;;;24.00
12061;BMP180;6091;51.432;6.880;2023-04-15T05:24:15;100178.00;;;24.00
12061;BMP180;6091;51.432;6.880;2023-04-15T05:26:42;100175.00;;;23.90
12061;BMP180;6091;51.432;6.880;2023-04-15T05:29:09;100168.00;;;23.90
12061;BMP180;6091;51.432;6.880;2023-04-15T05:31:37;100177.00;;;23.90
12061;BMP180;6091;51.432;6.880;2023-04-15T05:34:04;100169.00;;;23.90
12061;BMP180;6091;51.432;6.880;2023-04-15T05:36:33;100185.00;;;23.90
12061;BMP180;6091;51.432;6.880;2023-04-15T05:39:00;100183.00;;;23.90
12061;BMP180;6091;51.432;6.880;2023-04-15T05:41:28;100186.00;;;23.90
12061;BMP180;6091;51.432;6.880;2023-04-15T05:43:55;100197.00;;;23.90
12061;BMP180;6091;51.432;6.880;2023-04-15T05:46:25;100199.00;;;23.90
12061;BMP180;6091;51.432;6.880;2023-04-15T05:48:53;100200.00;;;23.90
12061;BMP180;6091;51.432;6.880;2023-04-15T05:51:22;100200.00;;;23.90
12061;BMP180;6091;51.432;6.880;2023-04-15T05:53:49;100199.00;;;23.90
12061;BMP180;6091;51.432;6.880;2023-04-15T05:56:16;100214.00;;;23.90
12061;BMP180;6091;51.432;6.880;2023-04-15T05:58:43;100215.00;;;23.90
12061;BMP180;6091;51.432;6.880;2023-04-15T06:01:11;100220.00;;;23.90
12061;BMP180;6091;51.432;6.880;2023-04-15T06:03:38;100224.00;;;23.90
12061;BMP180;6091;51.432;6.880;2023-04-15T06:06:05;100224.00;;;23.90
12061;BMP180;6091;51.432;6.880;2023-04-15T06:08:33;100226.00;;;24.00
12061;BMP180;6091;51.432;6.880;2023-04-15T06:11:03;100235.00;;;24.00
12061;BMP180;6091;51.432;6.880;2023-04-15T06:13:32;100235.00;;;24.00
12061;BMP180;6091;51.432;6.880;2023-04-15T06:15:59;100237.00;;;24.00
12061;BMP180;6091;51.432;6.880;2023-04-15T06:18:26;100239.00;;;24.00
12061;BMP180;6091;51.432;6.880;2023-04-15T06:20:53;100239.00;;;24.00
12061;BMP180;6091;51.432;6.880;2023-04-15T06:23:20;100246.00;;;24.00
12061;BMP180;6091;51.432;6.880;2023-04-15T06:25:47;100250.00;;;24.00
12061;BMP180;6091;51.432;6.880;2023-04-15T06:28:14;100252.00;;;24.00
12061;BMP180;6091;51.432;6.880;2023-04-15T06:30:41;100249.00;;;24.00
12061;BMP180;6091;51.432;6.880;2023-04-15T06:33:09;100252.00;;;24.00
12061;BMP180;6091;51.432;6.880;2023-04-15T06:35:36;100260.00;;;24.00
12061;BMP180;6091;51.432;6.880;2023-04-15T06:38:04;100256.00;;;24.10
12061;BMP180;6091;51.432;6.880;2023-04-15T06:40:31;100265.00;;;24.10
12061;BMP180;6091;51.432;6.880;2023-04-15T06:42:58;100261.00;;;24.10
12061;BMP180;6091;51.432;6.880;2023-04-15T06:45:25;100263.00;;;24.10
12061;BMP180;6091;51.432;6.880;2023-04-15T06:47:53;100263.00;;;24.10
12061;BMP180;6091;51.432;6.880;2023-04-15T06:50:20;100272.00;;;24.10
12061;BMP180;6091;51.432;6.880;2023-04-15T06:52:47;100275.00;;;24.20
12061;BMP180;6091;51.432;6.880;2023-04-15T06:55:14;100274.00;;;24.20
12061;BMP180;6091;51.432;6.880;2023-04-15T06:57:41;100278.00;;;24.20
12061;BMP180;6091;51.432;6.880;2023-04-15T07:00:09;100287.00;;;24.20
12061;BMP180;6091;51.432;6.880;2023-04-15T07:02:38;100288.00;;;24.40
12061;BMP180;6091;51.432;6.880;2023-04-15T07:05:06;100290.00;;;24.30
12061;BMP180;6091;51.432;6.880;2023-04-15T07:07:33;100291.00;;;24.30
12061;BMP180;6091;51.432;6.880;2023-04-15T07:10:01;100285.00;;;24.30
12061;BMP180;6091;51.432;6.880;2023-04-15T07:12:31;100288.00;;;24.40
12061;BMP180;6091;51.432;6.880;2023-04-15T07:14:59;100293.00;;;24.40
12061;BMP180;6091;51.432;6.880;2023-04-15T07:17:26;100299.00;;;24.40
12061;BMP180;6091;51.432;6.880;2023-04-15T07:19:53;100297.00;;;24.40
12061;BMP180;6091;51.432;6.880;2023-04-15T07:22:20;100305.00;;;24.40
12061;BMP180;6091;51.432;6.880;2023-04-15T07:24:47;100304.00;;;24.40
12061;BMP180;6091;51.432;6.880;2023-04-15T07:27:14;100307.00;;;24.40
12061;BMP180;6091;51.432;6.880;2023-04-15T07:29:42;100322.00;;;24.40
12061;BMP180;6091;51.432;6.880;2023-04-15T07:32:09;100308.00;;;24.50
12061;BMP180;6091;51.432;6.880;2023-04-15T07:34:36;100321.00;;;24.50
12061;BMP180;6091;51.432;6.880;2023-04-15T07:37:04;100324.00;;;24.50
12061;BMP180;6091;51.432;6.880;2023-04-15T07:39:31;100323.00;;;24.50
12061;BMP180;6091;51.432;6.880;2023-04-15T07:41:58;100341.00;;;24.50
12061;BMP180;6091;51.432;6.880;2023-04-15T07:44:26;100335.00;;;24.50
12061;BMP180;6091;51.432;6.880;2023-04-15T07:46:54;100331.00;;;24.50
12061;BMP180;6091;51.432;6.880;2023-04-15T07:49:21;100335.00;;;24.50
12061;BMP180;6091;51.432;6.880;2023-04-15T07:51:49;100331.00;;;24.50
12061;BMP180;6091;51.432;6.880;2023-04-15T07:54:16;100330.00;;;24.60
12061;BMP180;6091;51.432;6.880;2023-04-15T07:56:43;100340.00;;;24.60
12061;BMP180;6091;51.432;6.880;2023-04-15T07:59:15;100334.00;;;24.60
12061;BMP180;6091;51.432;6.880;2023-04-15T08:01:44;100335.00;;;24.60
12061;BMP180;6091;51.432;6.880;2023-04-15T08:04:11;100333.00;;;24.60
12061;BMP180;6091;51.432;6.880;2023-04-15T08:06:39;100339.00;;;24.60
12061;BMP180;6091;51.432;6.880;2023-04-15T08:09:06;100331.00;;;24.70
12061;BMP180;6091;51.432;6.880;2023-04-15T08:11:34;100336.00;;;24.70
12061;BMP180;6091;51.432;6.880;2023-04-15T08:14:03;100344.00;;;24.70
12061;BMP180;6091;51.432;6.880;2023-04-15T08:16:30;100347.00;;;24.70
12061;BMP180;6091;51.432;6.880;2023-04-15T08:18:58;100354.00;;;24.80
12061;BMP180;6091;51.432;6.880;2023-04-15T08:21:25;100354.00;;;24.80
12061;BMP180;6091;51.432;6.880;2023-04-15T08:23:53;100344.00;;;24.80
12061;BMP180;6091;51.432;6.880;2023-04-15T08:26:21;100349.00;;;24.80
12061;BMP180;6091;51.432;6.880;2023-04-15T08:28:48;100341.00;;;24.80
12061;BMP180;6091;51.432;6.880;2023-04-15T08:31:18;100348.00;;;24.90
12061;BMP180;6091;51.432;6.880;2023-04-15T08:33:46;100353.00;;;24.90
12061;BMP180;6091;51.432;6.880;2023-04-15T08:36:13;100356.00;;;24.90
12061;BMP180;6091;51.432;6.880;2023-04-15T08:38:40;100352.00;;;24.90
12061;BMP180;6091;51.432;6.880;2023-04-15T08:41:26;100361.00;;;24.90
12061;BMP180;6091;51.432;6.880;2023-04-15T08:44:04;100364.00;;;24.90
12061;BMP180;6091;51.432;6.880;2023-04-15T08:46:32;100354.00;;;24.90
12061;BMP180;6091;51.432;6.880;2023-04-15T08:49:04;100363.00;;;25.00
12061;BMP180;6091;51.432;6.880;2023-04-15T08:51:31;100366.00;;;25.00
12061;BMP180;6091;51.432;6.880;2023-04-15T08:54:01;100376.00;;;25.00
12061;BMP180;6091;51.432;6.880;2023-04-15T08:56:30;100376.00;;;25.10
12061;BMP180;6091;51.432;6.880;2023-04-15T08:58:59;100367.00;;;25.10
12061;BMP180;6091;51.432;6.880;2023-04-15T09:01:27;100378.00;;;25.10
12061;BMP180;6091;51.432;6.880;2023-04-15T09:03:55;100383.00;;;25.20
12061;BMP180;6091;51.432;6.880;2023-04-15T09:06:24;100381.00;;;25.20
12061;BMP180;6091;51.432;6.880;2023-04-15T09:08:51;100382.00;;;25.20
12061;BMP180;6091;51.432;6.880;2023-04-15T09:11:21;100390.00;;;25.30
12061;BMP180;6091;51.432;6.880;2023-04-15T09:13:49;100387.00;;;25.30
12061;BMP180;6091;51.432;6.880;2023-04-15T09:16:18;100394.00;;;25.30
12061;BMP180;6091;51.432;6.880;2023-04-15T09:18:46;100386.00;;;25.40
12061;BMP180;6091;51.432;6.880;2023-04-15T09:21:17;100409.00;;;25.40
12061;BMP180;6091;51.432;6.880;2023-04-15T09:23:59;100415.00;;;25.40
12061;BMP180;6091;51.432;6.880;2023-04-15T09:26:38;100411.00;;;25.50
12061;BMP180;6091;51.432;6.880;2023-04-15T09:29:10;100412.00;;;25.50
12061;BMP180;6091;51.432;6.880;2023-04-15T09:31:43;100424.00;;;25.50
12061;BMP180;6091;51.432;6.880;2023-04-15T09:34:10;100419.00;;;25.60
12061;BMP180;6091;51.432;6.880;2023-04-15T09:39:16;100425.00;;;25.70
12061;BMP180;6091;51.432;6.880;2023-04-15T09:41:44;100434.00;;;25.70
12061;BMP180;6091;51.432;6.880;2023-04-15T09:44:25;100434.00;;;25.70
12061;BMP180;6091;51.432;6.880;2023-04-15T09:46:52;100437.00;;;25.80
12061;BMP180;6091;51.432;6.880;2023-04-15T09:49:19;100428.00;;;25.80
12061;BMP180;6091;51.432;6.880;2023-04-15T09:51:47;100441.00;;;25.80
12061;BMP180;6091;51.432;6.880;2023-04-15T09:54:37;100444.00;;;25.80
12061;BMP180;6091;51.432;6.880;2023-04-15T09:57:08;100447.00;;;25.90
12061;BMP180;6091;51.432;6.880;2023-04-15T09:59:39;100448.00;;;25.90
12061;BMP180;6091;51.432;6.880;2023-04-15T10:02:06;100444.00;;;25.90
12061;BMP180;6091;51.432;6.880;2023-04-15T10:04:39;100448.00;;;25.90
12061;BMP180;6091;51.432;6.880;2023-04-15T10:07:11;100452.00;;;25.90
12061;BMP180;6091;51.432;6.880;2023-04-15T10:09:39;100457.00;;;25.90
12061;BMP180;6091;51.432;6.880;2023-04-15T10:12:07;100455.00;;;25.90
12061;BMP180;6091;51.432;6.880;2023-04-15T10:14:36;100462.00;;;25.90
12061;BMP180;6091;51.432;6.880;2023-04-15T10:17:06;100459.00;;;25.90
12061;BMP180;6091;51.432;6.880;2023-04-15T10:19:36;100464.00;;;25.80
12061;BMP180;6091;51.432;6.880;2023-04-15T10:22:05;100473.00;;;25.90
12061;BMP180;6091;51.432;6.880;2023-04-15T10:24:38;100469.00;;;25.80
12061;BMP180;6091;51.432;6.880;2023-04-15T10:27:07;100476.00;;;25.90
12061;BMP180;6091;51.432;6.880;2023-04-15T10:29:35;100474.00;;;25.90
12061;BMP180;6091;51.432;6.880;2023-04-15T10:32:03;100468.00;;;25.90
12061;BMP180;6091;51.432;6.880;2023-04-15T10:34:31;100472.00;;;26.00
12061;BMP180;6091;51.432;6.880;2023-04-15T10:37:01;100477.00;;;26.00
12061;BMP180;6091;51.432;6.880;2023-04-15T10:39:44;100479.00;;;26.00
12061;BMP180;6091;51.432;6.880;2023-04-15T10:42:17;100478.00;;;26.00
12061;BMP180;6091;51.432;6.880;2023-04-15T10:44:50;100488.00;;;25.90
12061;BMP180;6091;51.432;6.880;2023-04-15T10:47:22;100486.00;;;25.90
12061;BMP180;6091;51.432;6.880;2023-04-15T10:50:00;100490.00;;;25.90
12061;BMP180;6091;51.432;6.880;2023-04-15T10:52:28;100485.00;;;25.80
12061;BMP180;6091;51.432;6.880;2023-04-15T10:55:12;100490.00;;;25.80
12061;BMP180;6091;51.432;6.880;2023-04-15T10:57:43;100487.00;;;25.80
12061;BMP180;6091;51.432;6.880;2023-04-15T11:00:17;100489.00;;;25.80
12061;BMP180;6091;51.432;6.880;2023-04-15T11:02:55;100496.00;;;25.80
12061;BMP180;6091;51.432;6.880;2023-04-15T11:05:51;100496.00;;;25.70
12061;BMP180;6091;51.432;6.880;2023-04-15T11:08:57;100490.00;;;25.90
12061;BMP180;6091;51.432;6.880;2023-04-15T11:12:04;100495.00;;;25.70
12061;BMP180;6091;51.432;6.880;2023-04-15T11:14:33;100492.00;;;25.60
12061;BMP180;6091;51.432;6.880;2023-04-15T11:17:03;100491.00;;;25.60
12061;BMP180;6091;51.432;6.880;2023-04-15T11:19:37;100498.00;;;25.60
12061;BMP180;6091;51.432;6.880;2023-04-15T11:22:10;100497.00;;;25.60
12061;BMP180;6091;51.432;6.880;2023-04-15T11:24:47;100506.00;;;25.60
12061;BMP180;6091;51.432;6.880;2023-04-15T11:27:24;100510.00;;;25.60
12061;BMP180;6091;51.432;6.880;2023-04-15T11:29:51;100508.00;;;25.60
12061;BMP180;6091;51.432;6.880;2023-04-15T11:32:20;100517.00;;;25.60
12061;BMP180;6091;51.432;6.880;2023-04-15T11:34:47;100520.00;;;25.60
12061;BMP180;6091;51.432;6.880;2023-04-15T11:37:15;100515.00;;;25.60
12061;BMP180;6091;51.432;6.880;2023-04-15T11:39:42;100512.00;;;25.50
12061;BMP180;6091;51.432;6.880;2023-04-15T11:42:17;100518.00;;;25.60
12061;BMP180;6091;51.432;6.880;2023-04-15T11:44:44;100524.00;;;25.50
12061;BMP180;6091;51.432;6.880;2023-04-15T11:47:24;100518.00;;;25.50
12061;BMP180;6091;51.432;6.880;2023-04-15T11:49:51;100516.00;;;25.50
12061;BMP180;6091;51.432;6.880;2023-04-15T11:52:18;100529.00;;;25.50
12061;BMP180;6091;51.432;6.880;2023-04-15T11:54:46;100532.00;;;25.50
12061;BMP180;6091;51.432;6.880;2023-04-15T11:57:16;100532.00;;;25.50
12061;BMP180;6091;51.432;6.880;2023-04-15T11:59:44;100537.00;;;25.50
12061;BMP180;6091;51.432;6.880;2023-04-15T12:02:12;100539.00;;;25.50
12061;BMP180;6091;51.432;6.880;2023-04-15T12:04:40;100539.00;;;25.50
12061;BMP180;6091;51.432;6.880;2023-04-15T12:07:11;100545.00;;;25.50
12061;BMP180;6091;51.432;6.880;2023-04-15T12:09:38;100544.00;;;25.40
12061;BMP180;6091;51.432;6.880;2023-04-15T12:12:06;100553.00;;;25.40
12061;BMP180;6091;51.432;6.880;2023-04-15T12:14:33;100559.00;;;25.40
12061;BMP180;6091;51.432;6.880;2023-04-15T12:17:05;100559.00;;;25.40
12061;BMP180;6091;51.432;6.880;2023-04-15T12:19:37;100563.00;;;25.30
12061;BMP180;6091;51.432;6.880;2023-04-15T12:22:09;100566.00;;;25.30
12061;BMP180;6091;51.432;6.880;2023-04-15T12:24:37;100560.00;;;25.30
12061;BMP180;6091;51.432;6.880;2023-04-15T12:27:11;100577.00;;;25.20
12061;BMP180;6091;51.432;6.880;2023-04-15T12:29:40;100574.00;;;25.20
12061;BMP180;6091;51.432;6.880;2023-04-15T12:32:10;100581.00;;;25.20
12061;BMP180;6091;51.432;6.880;2023-04-15T12:34:48;100582.00;;;25.20
12061;BMP180;6091;51.432;6.880;2023-04-15T12:37:16;100598.00;;;25.20
12061;BMP180;6091;51.432;6.880;2023-04-15T12:39:47;100596.00;;;25.20
12061;BMP180;6091;51.432;6.880;2023-04-15T12:42:19;100598.00;;;25.20
12061;BMP180;6091;51.432;6.880;2023-04-15T12:44:47;100602.00;;;25.20
12061;BMP180;6091;51.432;6.880;2023-04-15T12:47:16;100599.00;;;25.20
12061;BMP180;6091;51.432;6.880;2023-04-15T12:49:49;100611.00;;;25.10
12061;BMP180;6091;51.432;6.880;2023-04-15T12:52:17;100611.00;;;25.10
12061;BMP180;6091;51.432;6.880;2023-04-15T12:54:44;100622.00;;;25.10
12061;BMP180;6091;51.432;6.880;2023-04-15T12:57:12;100625.00;;;25.10
12061;BMP180;6091;51.432;6.880;2023-04-15T12:59:39;100622.00;;;25.10
12061;BMP180;6091;51.432;6.880;2023-04-15T13:02:07;100621.00;;;25.10
12061;BMP180;6091;51.432;6.880;2023-04-15T13:04:34;100628.00;;;25.10
12061;BMP180;6091;51.432;6.880;2023-04-15T13:07:02;100630.00;;;25.10
12061;BMP180;6091;51.432;6.880;2023-04-15T13:09:31;100635.00;;;25.10
12061;BMP180;6091;51.432;6.880;2023-04-15T13:11:59;100638.00;;;25.10
12061;BMP180;6091;51.432;6.880;2023-04-15T13:14:26;100639.00;;;25.10
12061;BMP180;6091;51.432;6.880;2023-04-15T13:16:53;100644.00;;;25.10
12061;BMP180;6091;51.432;6.880;2023-04-15T13:19:20;100644.00;;;25.10
12061;BMP180;6091;51.432;6.880;2023-04-15T13:21:48;100644.00;;;25.00
12061;BMP180;6091;51.432;6.880;2023-04-15T13:24:15;100654.00;;;25.00
12061;BMP180;6091;51.432;6.880;2023-04-15T13:26:42;100657.00;;;25.00
12061;BMP180;6091;51.432;6.880;2023-04-15T13:29:09;100659.00;;;25.00
12061;BMP180;6091;51.432;6.880;2023-04-15T13:31:38;100656.00;;;25.00
12061;BMP180;6091;51.432;6.880;2023-04-15T13:34:05;100655.00;;;25.00
12061;BMP180;6091;51.432;6.880;2023-04-15T13:36:33;100660.00;;;24.90
12061;BMP180;6091;51.432;6.880;2023-04-15T13:39:00;100660.00;;;24.90
12061;BMP180;6091;51.432;6.880;2023-04-15T13:41:27;100662.00;;;24.90
12061;BMP180;6091;51.432;6.880;2023-04-15T13:43:55;100661.00;;;24.90
12061;BMP180;6091;51.432;6.880;2023-04-15T13:46:24;100663.00;;;24.90
12061;BMP180;6091;51.432;6.880;2023-04-15T13:48:52;100668.00;;;24.90
12061;BMP180;6091;51.432;6.880;2023-04-15T13:51:19;100675.00;;;24.90
12061;BMP180;6091;51.432;6.880;2023-04-15T13:53:48;100681.00;;;24.90
12061;BMP180;6091;51.432;6.880;2023-04-15T13:56:15;100675.00;;;24.80
12061;BMP180;6091;51.432;6.880;2023-04-15T13:58:42;100681.00;;;24.80
12061;BMP180;6091;51.432;6.880;2023-04-15T14:01:10;100684.00;;;24.80
12061;BMP180;6091;51.432;6.880;2023-04-15T14:03:37;100690.00;;;24.80
12061;BMP180;6091;51.432;6.880;2023-04-15T14:06:05;100678.00;;;24.80
12061;BMP180;6091;51.432;6.880;2023-04-15T14:08:33;100686.00;;;24.80
12061;BMP180;6091;51.432;6.880;2023-04-15T14:11:00;100692.00;;;24.80
12061;BMP180;6091;51.432;6.880;2023-04-15T14:13:31;100693.00;;;24.80
12061;BMP180;6091;51.432;6.880;2023-04-15T14:16:00;100699.00;;;24.80
12061;BMP180;6091;51.432;6.880;2023-04-15T14:18:28;100699.00;;;24.70
12061;BMP180;6091;51.432;6.880;2023-04-15T14:20:56;100708.00;;;24.70